createdAt,value
2018-09-20T00:02:06.572Z,4.22
2018-09-20T00:04:34.638Z,4.50
2018-09-20T00:07:02.741Z,4.40
2018-09-20T00:09:30.792Z,3.90
2018-09-20T00:12:41.068Z,4.78
2018-09-20T00:15:09.140Z,4.50
2018-09-20T00:17:37.209Z,3.80
2018-09-20T00:20:05.920Z,5.35
2018-09-20T00:22:33.993Z,4.60
2018-09-20T00:25:02.052Z,4.90
2018-09-20T00:27:30.100Z,4.60
2018-09-20T00:29:58.156Z,4.45
2018-09-20T00:32:26.289Z,4.72
2018-09-20T00:34:54.690Z,4.22
2018-09-20T00:37:22.750Z,3.98
2018-09-20T00:39:50.804Z,4.33
2018-09-20T00:42:18.859Z,4.10
2018-09-20T00:44:46.916Z,4.40
2018-09-20T00:47:14.999Z,4.15
2018-09-20T00:49:43.061Z,4.55
2018-09-20T00:52:11.119Z,4.50
2018-09-20T00:54:39.176Z,4.25
2018-09-20T00:57:07.221Z,4.85
2018-09-20T00:59:35.285Z,4.47
2018-09-20T01:02:03.825Z,4.83
2018-09-20T01:04:31.892Z,4.42
2018-09-20T01:06:59.949Z,4.37
2018-09-20T01:09:28.005Z,4.50
2018-09-20T01:11:56.056Z,4.60
2018-09-20T01:14:24.135Z,3.90
2018-09-20T01:16:52.189Z,4.72
2018-09-20T01:19:20.236Z,4.67
2018-09-20T01:21:48.317Z,4.35
2018-09-20T01:24:16.424Z,4.20
2018-09-20T01:26:44.476Z,4.08
2018-09-20T01:29:12.539Z,4.20
2018-09-20T01:31:40.608Z,4.33
2018-09-20T01:34:08.672Z,4.97
2018-09-20T01:36:36.721Z,4.62
2018-09-20T01:39:09.554Z,5.08
2018-09-20T01:41:37.621Z,4.62
2018-09-20T01:44:05.665Z,5.10
2018-09-20T01:46:33.727Z,5.28
2018-09-20T01:49:01.799Z,5.22
2018-09-20T01:51:29.902Z,4.97
2018-09-20T01:53:57.957Z,5.37
2018-09-20T01:56:26.005Z,4.37
2018-09-20T01:58:54.098Z,4.85
2018-09-20T02:01:22.161Z,4.75
2018-09-20T02:03:50.264Z,4.22
2018-09-20T02:06:18.400Z,4.97
2018-09-20T02:08:46.458Z,4.90
2018-09-20T02:11:14.530Z,5.20
2018-09-20T02:13:42.588Z,4.40
2018-09-20T02:16:10.664Z,5.25
2018-09-20T02:18:38.725Z,5.00
2018-09-20T02:21:07.025Z,5.15
2018-09-20T02:23:35.081Z,4.58
2018-09-20T02:26:03.143Z,4.60
2018-09-20T02:28:31.201Z,4.20
2018-09-20T02:30:59.269Z,4.67
2018-09-20T02:33:27.329Z,4.40
2018-09-20T02:35:55.391Z,4.97
2018-09-20T02:38:23.453Z,5.03
2018-09-20T02:40:51.512Z,5.08
2018-09-20T02:43:19.572Z,4.87
2018-09-20T02:45:47.627Z,5.65
2018-09-20T02:48:15.697Z,5.03
2018-09-20T02:50:43.752Z,5.10
2018-09-20T02:53:11.810Z,4.20
2018-09-20T02:55:39.886Z,4.65
2018-09-20T02:58:07.973Z,4.10
2018-09-20T03:00:36.077Z,4.17
2018-09-20T03:03:04.276Z,3.90
2018-09-20T03:05:32.336Z,4.97
2018-09-20T03:08:00.408Z,5.62
2018-09-20T03:10:28.506Z,4.78
2018-09-20T03:12:56.569Z,5.35
2018-09-20T03:15:24.630Z,5.25
2018-09-20T03:17:52.697Z,4.45
2018-09-20T03:20:21.033Z,4.62
2018-09-20T03:22:49.114Z,4.67
2018-09-20T03:25:17.165Z,5.60
2018-09-20T03:27:45.237Z,5.42
2018-09-20T03:30:13.312Z,5.37
2018-09-20T03:32:41.342Z,4.60
2018-09-20T03:35:09.600Z,4.53
2018-09-20T03:37:37.660Z,4.62
2018-09-20T03:40:05.836Z,4.70
2018-09-20T03:42:33.893Z,4.95
2018-09-20T03:45:01.951Z,5.78
2018-09-20T03:47:30.056Z,5.45
2018-09-20T03:49:58.105Z,5.15
2018-09-20T03:52:26.163Z,5.35
2018-09-20T03:54:54.238Z,4.47
2018-09-20T03:57:22.294Z,3.95
2018-09-20T03:59:50.378Z,5.00
2018-09-20T04:02:18.429Z,5.40
2018-09-20T04:04:46.486Z,5.35
2018-09-20T04:07:14.540Z,5.12
2018-09-20T04:09:42.663Z,4.85
2018-09-20T04:12:10.648Z,4.50
2018-09-20T04:14:38.699Z,5.90
2018-09-20T04:17:06.785Z,5.25
2018-09-20T04:19:34.841Z,5.20
2018-09-20T04:22:02.900Z,4.90
2018-09-20T04:24:30.984Z,5.55
2018-09-20T04:26:59.051Z,5.50
2018-09-20T04:29:27.104Z,4.30
2018-09-20T04:31:55.220Z,4.90
2018-09-20T04:34:23.225Z,5.95
2018-09-20T04:36:51.309Z,4.92
2018-09-20T04:39:19.375Z,4.50
2018-09-20T04:41:47.425Z,4.33
2018-09-20T04:44:15.498Z,5.25
2018-09-20T04:46:43.552Z,4.92
2018-09-20T04:49:11.617Z,5.45
2018-09-20T04:51:39.669Z,5.00
2018-09-20T04:54:07.729Z,4.97
2018-09-20T04:56:35.865Z,5.78
2018-09-20T04:59:03.906Z,5.08
2018-09-20T05:01:31.957Z,5.10
2018-09-20T05:04:00.075Z,5.55
2018-09-20T05:06:28.093Z,4.05
2018-09-20T05:08:56.329Z,5.30
2018-09-20T05:11:24.460Z,4.53
2018-09-20T05:13:52.513Z,4.65
2018-09-20T05:16:20.585Z,4.80
2018-09-20T05:18:48.649Z,5.33
2018-09-20T05:21:16.720Z,5.90
2018-09-20T05:23:44.769Z,4.62
2018-09-20T05:26:12.845Z,5.10
2018-09-20T05:28:40.896Z,4.85
2018-09-20T05:31:08.966Z,4.67
2018-09-20T05:33:37.032Z,5.15
2018-09-20T05:36:05.089Z,4.45
2018-09-20T05:38:33.142Z,5.60
2018-09-20T05:41:01.195Z,4.37
2018-09-20T05:43:29.304Z,5.33
2018-09-20T05:45:57.315Z,5.35
2018-09-20T05:48:25.364Z,5.35
2018-09-20T05:50:53.476Z,5.05
2018-09-20T05:53:21.461Z,4.72
2018-09-20T05:55:49.516Z,5.95
2018-09-20T05:58:17.589Z,4.67
2018-09-20T06:00:45.657Z,6.00
2018-09-20T06:03:13.719Z,6.35
2018-09-20T06:05:41.819Z,6.42
2018-09-20T06:08:09.823Z,5.72
2018-09-20T06:10:37.942Z,5.67
2018-09-20T06:13:06.063Z,5.95
2018-09-20T06:15:34.097Z,6.58
2018-09-20T06:18:02.163Z,5.58
2018-09-20T06:20:30.221Z,5.87
2018-09-20T06:22:58.264Z,5.58
2018-09-20T06:25:26.336Z,5.85
2018-09-20T06:27:54.376Z,4.90
2018-09-20T06:30:22.424Z,5.83
2018-09-20T06:32:50.493Z,5.33
2018-09-20T06:35:19.256Z,5.15
2018-09-20T06:37:47.325Z,5.28
2018-09-20T06:40:15.377Z,5.60
2018-09-20T06:42:43.433Z,5.80
2018-09-20T06:45:11.476Z,6.30
2018-09-20T06:47:39.530Z,5.45
2018-09-20T06:50:07.589Z,7.05
2018-09-20T06:52:35.664Z,6.70
2018-09-20T06:55:03.720Z,5.80
2018-09-20T06:57:34.996Z,6.35
2018-09-20T07:00:04.004Z,6.67
2018-09-20T07:02:32.407Z,6.35
2018-09-20T07:05:00.481Z,7.12
2018-09-20T07:07:28.563Z,6.65
2018-09-20T07:09:56.620Z,6.47
2018-09-20T07:12:24.680Z,6.20
2018-09-20T07:14:52.816Z,6.22
2018-09-20T07:17:20.880Z,6.55
2018-09-20T07:19:48.938Z,5.65
2018-09-20T07:22:17.067Z,5.65
2018-09-20T07:24:45.261Z,5.00
2018-09-20T07:27:13.332Z,4.95
2018-09-20T07:29:41.398Z,4.67
2018-09-20T07:32:09.477Z,4.03
2018-09-20T07:34:37.528Z,4.53
2018-09-20T07:37:05.613Z,5.00
2018-09-20T07:39:33.789Z,4.53
2018-09-20T07:42:01.866Z,4.27
2018-09-20T07:44:29.920Z,4.63
2018-09-20T07:46:57.977Z,4.30
2018-09-20T07:49:26.025Z,4.20
2018-09-20T07:51:54.089Z,3.63
2018-09-20T07:54:22.132Z,4.10
2018-09-20T07:56:50.266Z,3.60
2018-09-20T07:59:18.302Z,4.00
2018-09-20T08:01:46.478Z,3.53
2018-09-20T08:04:14.669Z,3.30
2018-09-20T08:06:42.725Z,3.83
2018-09-20T08:09:12.069Z,4.10
2018-09-20T08:11:40.122Z,3.30
2018-09-20T08:14:08.183Z,3.50
2018-09-20T08:16:36.264Z,3.60
2018-09-20T08:19:04.381Z,4.10
2018-09-20T08:21:32.584Z,3.30
2018-09-20T08:24:00.628Z,3.67
2018-09-20T08:26:28.681Z,3.03
2018-09-20T08:28:56.768Z,3.30
2018-09-20T08:31:24.829Z,3.07
2018-09-20T08:33:52.890Z,4.10
2018-09-20T08:36:20.940Z,3.20
2018-09-20T08:38:49.000Z,2.80
2018-09-20T08:41:17.059Z,3.93
2018-09-20T08:43:45.148Z,3.10
2018-09-20T08:46:13.192Z,3.13
2018-09-20T08:48:41.257Z,4.10
2018-09-20T08:51:09.394Z,3.50
2018-09-20T08:53:37.390Z,2.90
2018-09-20T08:56:05.428Z,3.10
2018-09-20T08:58:33.825Z,3.17
2018-09-20T09:01:03.330Z,3.70
2018-09-20T09:03:31.734Z,4.03
2018-09-20T09:06:00.125Z,3.83
2018-09-20T09:08:28.178Z,2.83
2018-09-20T09:10:56.227Z,3.10
2018-09-20T09:13:24.281Z,3.03
2018-09-20T09:15:52.425Z,2.53
2018-09-20T09:18:20.481Z,3.73
2018-09-20T09:20:48.548Z,3.60
2018-09-20T09:23:16.648Z,2.63
2018-09-20T09:25:44.688Z,3.17
2018-09-20T09:28:12.770Z,3.07
2018-09-20T09:30:40.830Z,2.80
2018-09-20T09:33:08.891Z,2.97
2018-09-20T09:35:36.949Z,3.03
2018-09-20T09:38:05.014Z,2.90
2018-09-20T09:40:33.082Z,3.30
2018-09-20T09:43:01.146Z,3.10
2018-09-20T09:45:29.208Z,3.23
2018-09-20T09:47:57.320Z,2.67
2018-09-20T09:50:25.324Z,2.87
2018-09-20T09:52:53.392Z,2.90
2018-09-20T09:55:21.449Z,2.90
2018-09-20T09:57:52.868Z,2.60
2018-09-20T10:00:26.633Z,3.10
2018-09-20T10:02:54.877Z,2.70
2018-09-20T10:05:22.940Z,3.30
2018-09-20T10:07:51.000Z,3.83
2018-09-20T10:10:19.069Z,2.80
2018-09-20T10:12:47.120Z,3.00
2018-09-20T10:15:15.296Z,3.03
2018-09-20T10:17:43.358Z,3.00
2018-09-20T10:20:11.429Z,3.30
2018-09-20T10:22:39.544Z,3.30
2018-09-20T10:25:07.735Z,3.10
2018-09-20T10:27:35.780Z,3.23
2018-09-20T10:30:04.533Z,2.83
2018-09-20T10:32:32.717Z,2.70
2018-09-20T10:35:01.209Z,2.87
2018-09-20T10:37:29.278Z,2.73
2018-09-20T10:39:57.342Z,2.30
2018-09-20T10:42:25.405Z,2.50
2018-09-20T10:44:53.463Z,2.30
2018-09-20T10:47:21.569Z,2.80
2018-09-20T10:49:49.600Z,2.40
2018-09-20T10:52:17.657Z,3.10
2018-09-20T10:54:45.728Z,2.90
2018-09-20T10:57:13.789Z,2.90
2018-09-20T10:59:42.002Z,2.40
2018-09-20T11:02:10.028Z,2.43
2018-09-20T11:04:38.088Z,2.53
2018-09-20T11:07:06.150Z,3.10
2018-09-20T11:09:34.242Z,2.90
2018-09-20T11:12:02.272Z,2.57
2018-09-20T11:14:30.377Z,2.67
2018-09-20T11:16:58.442Z,2.93
2018-09-20T11:19:26.480Z,2.20
2018-09-20T11:21:54.575Z,2.17
2018-09-20T11:24:22.641Z,2.83
2018-09-20T11:26:50.699Z,2.20
2018-09-20T11:29:18.753Z,2.73
2018-09-20T11:31:46.820Z,2.40
2018-09-20T11:34:15.542Z,2.70
2018-09-20T11:36:43.592Z,2.40
2018-09-20T11:39:13.257Z,2.40
2018-09-20T11:41:41.540Z,2.10
2018-09-20T11:44:09.828Z,2.27
2018-09-20T11:46:38.055Z,2.53
2018-09-20T11:49:06.083Z,2.70
2018-09-20T11:51:34.144Z,2.50
2018-09-20T11:54:02.482Z,2.47
2018-09-20T11:56:30.532Z,2.70
2018-09-20T11:58:58.591Z,2.60
2018-09-20T12:01:26.719Z,2.30
2018-09-20T12:03:54.712Z,2.40
2018-09-20T12:06:22.777Z,2.47
2018-09-20T12:08:50.836Z,2.50
2018-09-20T12:11:18.951Z,2.43
2018-09-20T12:13:46.996Z,2.50
2018-09-20T12:16:15.068Z,2.63
2018-09-20T12:18:43.145Z,2.40
2018-09-20T12:21:11.213Z,2.17
2018-09-20T12:23:39.306Z,2.53
2018-09-20T12:26:07.361Z,2.67
2018-09-20T12:28:35.439Z,2.90
2018-09-20T12:31:03.497Z,2.67
2018-09-20T12:33:31.557Z,2.47
2018-09-20T12:35:59.692Z,2.80
2018-09-20T12:38:27.681Z,2.87
2018-09-20T12:40:55.744Z,2.97
2018-09-20T12:43:23.813Z,2.77
2018-09-20T12:45:51.892Z,2.50
2018-09-20T12:48:19.955Z,2.60
2018-09-20T12:50:48.004Z,2.63
2018-09-20T12:53:16.077Z,2.80
2018-09-20T12:55:44.149Z,2.57
2018-09-20T12:58:12.199Z,2.70
2018-09-20T13:00:40.297Z,3.23
2018-09-20T13:03:08.332Z,2.70
2018-09-20T13:05:36.391Z,3.07
2018-09-20T13:08:04.476Z,2.70
2018-09-20T13:10:32.541Z,3.00
2018-09-20T13:13:00.705Z,2.63
2018-09-20T13:15:28.700Z,3.27
2018-09-20T13:17:56.780Z,2.93
2018-09-20T13:20:24.872Z,2.93
2018-09-20T13:22:52.917Z,2.83
2018-09-20T13:25:21.058Z,2.70
2018-09-20T13:27:49.057Z,3.00
2018-09-20T13:30:17.113Z,2.80
2018-09-20T13:32:45.176Z,2.53
2018-09-20T13:35:13.243Z,2.70
2018-09-20T13:37:41.348Z,3.23
2018-09-20T13:40:09.396Z,4.00
2018-09-20T13:42:37.461Z,2.63
2018-09-20T13:45:05.834Z,3.20
2018-09-20T13:47:33.889Z,2.97
2018-09-20T13:50:01.979Z,3.60
2018-09-20T13:52:30.030Z,3.13
2018-09-20T13:54:58.109Z,3.00
2018-09-20T13:57:26.156Z,3.27
2018-09-20T13:59:54.221Z,2.90
2018-09-20T14:02:22.289Z,3.00
2018-09-20T14:04:50.357Z,3.13
2018-09-20T14:07:18.410Z,3.10
2018-09-20T14:09:46.473Z,2.83
2018-09-20T14:12:14.529Z,2.63
2018-09-20T14:14:42.613Z,3.10
2018-09-20T14:17:10.661Z,2.97
2018-09-20T14:19:38.724Z,3.50
2018-09-20T14:22:06.789Z,2.77
2018-09-20T14:24:34.844Z,3.57
2018-09-20T14:27:03.034Z,3.13
2018-09-20T14:29:31.078Z,2.93
2018-09-20T14:31:59.144Z,3.03
2018-09-20T14:34:27.202Z,3.30
2018-09-20T14:36:55.269Z,3.03
2018-09-20T14:39:23.363Z,3.27
2018-09-20T14:41:51.424Z,2.97
2018-09-20T14:44:19.540Z,3.13
2018-09-20T14:46:47.601Z,2.77
2018-09-20T14:49:15.679Z,3.60
2018-09-20T14:51:43.742Z,3.27
2018-09-20T14:54:11.781Z,2.80
2018-09-20T14:56:46.228Z,2.73
2018-09-20T14:59:14.281Z,3.03
2018-09-20T15:01:42.361Z,3.23
2018-09-20T15:04:10.421Z,3.67
2018-09-20T15:06:38.483Z,3.10
2018-09-20T15:09:09.420Z,3.70
2018-09-20T15:11:37.830Z,4.70
2018-09-20T15:14:06.222Z,2.90
2018-09-20T15:16:34.408Z,3.90
2018-09-20T15:19:02.514Z,3.47
2018-09-20T15:21:30.797Z,4.87
2018-09-20T15:23:59.088Z,2.92
2018-09-20T15:26:27.333Z,3.30
2018-09-20T15:28:55.570Z,4.47
2018-09-20T15:31:24.038Z,3.25
2018-09-20T15:33:52.485Z,4.08
2018-09-20T15:36:21.054Z,3.95
2018-09-20T15:38:49.828Z,3.25
2018-09-20T15:41:18.131Z,3.67
2018-09-20T15:43:46.765Z,3.83
2018-09-20T15:46:15.194Z,5.30
2018-09-20T15:48:43.776Z,3.40
2018-09-20T15:51:12.187Z,3.37
2018-09-20T15:53:40.265Z,3.30
2018-09-20T15:56:08.909Z,3.25
2018-09-20T15:58:36.952Z,3.55
2018-09-20T16:01:05.077Z,3.53
2018-09-20T16:03:33.145Z,2.90
2018-09-20T16:06:01.327Z,3.45
2018-09-20T16:08:29.304Z,3.25
2018-09-20T16:10:57.400Z,3.10
2018-09-20T16:13:25.459Z,2.92
2018-09-20T16:15:53.524Z,4.10
2018-09-20T16:18:21.589Z,3.27
2018-09-20T16:20:49.673Z,3.47
2018-09-20T16:23:17.753Z,3.15
2018-09-20T16:25:45.811Z,3.10
2018-09-20T16:28:33.053Z,4.05
2018-09-20T16:31:16.753Z,3.25
2018-09-20T16:33:58.912Z,3.12
2018-09-20T16:36:36.996Z,3.58
2018-09-20T16:39:13.018Z,3.12
2018-09-20T16:41:43.525Z,3.22
2018-09-20T16:44:11.636Z,3.35
2018-09-20T16:46:39.705Z,3.15
2018-09-20T16:49:07.765Z,3.27
2018-09-20T16:51:35.834Z,3.98
2018-09-20T16:54:03.892Z,3.25
2018-09-20T16:56:31.978Z,3.00
2018-09-20T16:59:00.075Z,5.00
2018-09-20T17:01:28.105Z,2.70
2018-09-20T17:03:56.165Z,3.40
2018-09-20T17:06:24.215Z,3.05
2018-09-20T17:08:52.505Z,2.80
2018-09-20T17:11:20.570Z,2.75
2018-09-20T17:13:48.778Z,3.20
2018-09-20T17:16:16.888Z,3.22
2018-09-20T17:18:44.884Z,3.25
2018-09-20T17:21:12.938Z,3.17
2018-09-20T17:23:41.040Z,2.70
2018-09-20T17:26:09.094Z,3.87
2018-09-20T17:28:37.189Z,2.92
2018-09-20T17:31:05.461Z,3.85
2018-09-20T17:33:33.545Z,4.60
2018-09-20T17:36:01.893Z,3.87
2018-09-20T17:38:31.060Z,4.00
2018-09-20T17:41:02.904Z,4.25
2018-09-20T17:43:41.497Z,4.50
2018-09-20T17:46:09.537Z,4.85
2018-09-20T17:48:37.837Z,4.00
2018-09-20T17:51:06.626Z,4.42
2018-09-20T17:53:34.957Z,4.87
2018-09-20T17:56:03.209Z,4.22
2018-09-20T17:58:31.841Z,5.05
2018-09-20T18:00:59.901Z,5.25
2018-09-20T18:03:28.017Z,4.25
2018-09-20T18:05:56.081Z,4.78
2018-09-20T18:08:24.169Z,3.75
2018-09-20T18:10:52.241Z,4.08
2018-09-20T18:13:20.340Z,5.03
2018-09-20T18:15:48.509Z,4.22
2018-09-20T18:18:16.615Z,4.65
2018-09-20T18:20:44.667Z,3.72
2018-09-20T18:23:13.174Z,3.87
2018-09-20T18:25:41.372Z,3.62
2018-09-20T18:28:09.957Z,4.55
2018-09-20T18:30:38.079Z,3.35
2018-09-20T18:33:06.153Z,4.85
2018-09-20T18:35:34.228Z,3.85
2018-09-20T18:38:02.282Z,3.62
2018-09-20T18:40:30.363Z,3.58
2018-09-20T18:42:58.384Z,4.20
2018-09-20T18:45:26.448Z,3.95
2018-09-20T18:47:54.512Z,3.75
2018-09-20T18:50:22.589Z,3.40
2018-09-20T18:52:50.655Z,3.80
2018-09-20T18:55:18.762Z,3.80
2018-09-20T18:57:46.805Z,4.85
2018-09-20T19:00:14.864Z,4.37
2018-09-20T19:02:42.925Z,4.17
2018-09-20T19:05:10.993Z,3.22
2018-09-20T19:07:39.058Z,4.35
2018-09-20T19:10:07.132Z,5.45
2018-09-20T19:12:35.206Z,4.70
2018-09-20T19:15:03.273Z,4.40
2018-09-20T19:17:31.314Z,4.25
2018-09-20T19:19:59.372Z,5.22
2018-09-20T19:22:27.444Z,4.20
2018-09-20T19:24:55.517Z,5.22
2018-09-20T19:27:23.630Z,6.62
2018-09-20T19:29:51.693Z,6.67
2018-09-20T19:32:19.749Z,5.60
2018-09-20T19:34:47.829Z,7.28
2018-09-20T19:37:15.894Z,5.62
2018-09-20T19:39:43.983Z,5.70
2018-09-20T19:42:12.068Z,6.45
2018-09-20T19:44:40.137Z,6.78
2018-09-20T19:47:08.202Z,6.45
2018-09-20T19:49:36.249Z,4.37
2018-09-20T19:52:04.375Z,4.58
2018-09-20T19:54:32.372Z,5.10
2018-09-20T19:57:00.455Z,5.30
2018-09-20T19:59:28.535Z,4.87
2018-09-20T20:01:56.614Z,4.92
2018-09-20T20:04:24.848Z,3.87
2018-09-20T20:06:52.930Z,4.67
2018-09-20T20:09:21.014Z,4.10
2018-09-20T20:11:49.061Z,4.65
2018-09-20T20:14:17.122Z,3.60
2018-09-20T20:16:45.194Z,3.72
2018-09-20T20:19:13.266Z,3.77
2018-09-20T20:21:41.361Z,4.20
2018-09-20T20:24:09.413Z,4.35
2018-09-20T20:26:37.601Z,4.25
2018-09-20T20:29:05.780Z,4.62
2018-09-20T20:31:33.858Z,4.78
2018-09-20T20:34:01.908Z,4.80
2018-09-20T20:36:30.072Z,4.20
2018-09-20T20:38:58.110Z,4.33
2018-09-20T20:41:26.167Z,4.67
2018-09-20T20:43:54.712Z,4.30
2018-09-20T20:46:22.916Z,4.75
2018-09-20T20:48:50.969Z,5.00
2018-09-20T20:51:19.594Z,4.28
2018-09-20T20:53:47.641Z,4.00
2018-09-20T20:56:15.726Z,3.80
2018-09-20T20:58:43.777Z,4.95
2018-09-20T21:01:17.376Z,4.08
2018-09-20T21:03:45.453Z,4.60
2018-09-20T21:06:13.537Z,4.37
2018-09-20T21:08:41.644Z,5.00
2018-09-20T21:11:09.900Z,4.40
2018-09-20T21:13:38.100Z,4.70
2018-09-20T21:16:06.373Z,4.70
2018-09-20T21:18:34.432Z,4.60
2018-09-20T21:21:02.488Z,4.05
2018-09-20T21:23:30.548Z,3.45
2018-09-20T21:25:58.621Z,5.65
2018-09-20T21:28:26.689Z,4.92
2018-09-20T21:30:54.777Z,4.75
2018-09-20T21:33:22.938Z,4.25
2018-09-20T21:35:50.994Z,4.65
2018-09-20T21:38:19.044Z,3.67
2018-09-20T21:40:47.121Z,4.40
2018-09-20T21:43:15.181Z,5.35
2018-09-20T21:45:43.237Z,5.50
2018-09-20T21:48:11.289Z,5.28
2018-09-20T21:50:39.349Z,5.37
2018-09-20T21:53:07.445Z,4.00
2018-09-20T21:55:35.493Z,5.05
2018-09-20T21:58:03.560Z,4.45
2018-09-20T22:00:31.609Z,5.17
2018-09-20T22:03:02.054Z,4.90
2018-09-20T22:05:30.940Z,4.83
2018-09-20T22:07:58.999Z,5.50
2018-09-20T22:10:27.069Z,4.42
2018-09-20T22:12:55.209Z,5.05
2018-09-20T22:15:24.813Z,3.80
2018-09-20T22:17:53.416Z,4.80
2018-09-20T22:20:22.021Z,4.83
2018-09-20T22:22:50.108Z,4.45
2018-09-20T22:25:18.144Z,4.37
2018-09-20T22:27:46.466Z,4.95
2018-09-20T22:30:14.770Z,5.22
2018-09-20T22:32:42.820Z,4.83
2018-09-20T22:35:10.885Z,4.33
2018-09-20T22:37:38.937Z,4.65
2018-09-20T22:40:07.025Z,5.53
2018-09-20T22:42:35.084Z,4.72
2018-09-20T22:45:03.784Z,4.75
2018-09-20T22:47:32.270Z,3.98
2018-09-20T22:50:00.339Z,4.65
2018-09-20T22:52:28.409Z,5.70
2018-09-20T22:54:56.489Z,3.77
2018-09-20T22:57:24.538Z,4.80
2018-09-20T22:59:52.593Z,4.28
2018-09-20T23:02:20.665Z,4.28
2018-09-20T23:04:48.742Z,4.05
2018-09-20T23:07:16.788Z,3.85
2018-09-20T23:09:44.854Z,5.30
2018-09-20T23:12:12.906Z,5.08
2018-09-20T23:14:40.981Z,4.60
2018-09-20T23:17:09.033Z,5.67
2018-09-20T23:19:37.084Z,5.25
2018-09-20T23:22:05.129Z,5.60
2018-09-20T23:24:33.217Z,6.03
2018-09-20T23:27:01.253Z,5.05
2018-09-20T23:29:29.313Z,5.05
2018-09-20T23:31:57.372Z,5.30
2018-09-20T23:34:25.432Z,5.85
2018-09-20T23:36:53.490Z,5.10
2018-09-20T23:39:21.557Z,5.03
2018-09-20T23:41:49.609Z,4.20
2018-09-20T23:44:17.665Z,4.33
2018-09-20T23:46:45.708Z,5.85
2018-09-20T23:49:13.756Z,4.95
2018-09-20T23:51:41.814Z,4.83
2018-09-20T23:54:09.864Z,4.72
2018-09-20T23:56:37.953Z,5.30
2018-09-20T23:59:06.013Z,4.80
